Balsa Nova, Brazil
Current Conditions -  °F | °C
As of 8:00 PM on Saturday 25 Oct 2014 (Local Time) from SBBI Reporting Station
Haze Haze  
Wind Chill: 64°   Ceiling: 3000
Heat Index: 64°   Visibility: 3mi
Dew Point: 61°   Wind: 2mph
Humidity: 88%   Direction: 320°NW
Pressure: 30"   Gusts: NA
Location:  25.59°S, 49.63°W
Report Text: SBBI 252200Z 32002KT 5000 BR SCT005 BKN030 BKN100 18/16 Q1016 RETS RERA
Loading
Personal Weather Stations






























Interactive Weather Map
Tropical Storm Tracking
New forecast layout! Learn more

10-Day Weather Forecast

Advertisements
Track Severe Weather on mobile